Ewen, Michigan
Current Conditions -  °F | °C
As of 10:35 AM on Friday 24 Oct 2014 (Local Time) from KLNL Reporting Station
Moderate Fog Moderate Fog  
Wind Chill: 42°   Ceiling: 100
Heat Index: 45°   Visibility: 0.5mi
Dew Point: 45°   Wind: 5mph
Humidity: 100%   Direction: 180°S
Pressure: 29.96"   Gusts: NA
Location:  46.53°N, 89.28°W
Report Text: KLNL 241435Z AUTO 18004KT 1/2SM FG OVC001 07/07 A2996 RMK AO2 T00710071
Loading
Personal Weather Stations






























Interactive Weather Map
Tropical Storm Tracking
New forecast layout! Learn more

10-Day Weather Forecast

Advertisements
Track Severe Weather on mobile